Mifflinville, Pennsylvania
Current Conditions -  °F | °C
As of 4:55 PM on Thursday 27 Nov 2014 (Local Time) from KHZL Reporting Station
Scattered Clouds Scattered Clouds  
Wind Chill: 23°   Ceiling: Unl
Heat Index: 30°   Visibility: 10mi
Dew Point: 27°   Wind: 7mph
Humidity: 86%   Direction: 300°WNW
Pressure: 30.01"   Gusts: NA
Location:  41.03°N, 76.3°W
Report Text: KHZL 272155Z AUTO 30006KT 10SM SCT040 M01/M03 A3001 RMK AO2
Loading
Personal Weather Stations






























Interactive Weather Map New forecast layout! Learn more

10-Day Weather Forecast

Advertisements
Track Severe Weather on mobile